Time;durP1;ratioP1;P1;durP2;ratioP2;P2;SDS_P1;SDS_P2;PMS_P1;PMS_P2;Temp;Humidity;BMP_temperature;BMP_pressure;BME280_temperature;BME280_humidity;BME280_pressure;Samples;Min_cycle;Max_cycle;Signal;HPM_P1;HPM_P2
2022/08/25 00:02:54;;;;;;;4.13;1.50;;;22.50;99.90;;;;;;20736229;28;20041;-81
2022/08/25 00:12:55;;;;;;;3.47;1.80;;;22.40;99.90;;;;;;20723648;28;20168;-81
2022/08/25 00:22:57;;;;;;;4.28;2.22;;;22.30;99.90;;;;;;20745915;28;20034;-81
2022/08/25 00:32:58;;;;;;;10.73;2.03;;;22.20;99.90;;;;;;20764102;28;20025;-81
2022/08/25 00:42:59;;;;;;;4.15;1.83;;;22.00;99.90;;;;;;20770857;28;20041;-81
2022/08/25 00:53:03;;;;;;;4.28;2.10;;;21.90;99.90;;;;;;20795879;28;20073;-81
2022/08/25 01:03:04;;;;;;;2.85;1.65;;;21.70;99.90;;;;;;20801624;28;20038;-81
2022/08/25 01:13:16;;;;;;;4.47;2.38;;;21.60;99.90;;;;;;20750295;28;21666;-80
2022/08/25 01:23:18;;;;;;;4.40;2.22;;;21.50;99.90;;;;;;20742553;28;20355;-80
2022/08/25 01:33:19;;;;;;;2.85;1.58;;;21.40;99.90;;;;;;20761439;28;20089;-80
2022/08/25 01:43:34;;;;;;;5.07;2.00;;;21.40;99.90;;;;;;20750091;28;20088;-80
2022/08/25 01:53:35;;;;;;;2.90;1.55;;;21.30;99.90;;;;;;20759602;28;20034;-81
2022/08/25 02:03:38;;;;;;;3.58;2.22;;;21.30;99.90;;;;;;20756203;28;20065;-81
2022/08/25 02:13:41;;;;;;;3.33;2.10;;;21.10;99.90;;;;;;20737223;28;20037;-81
2022/08/25 02:23:42;;;;;;;4.43;1.92;;;21.00;99.90;;;;;;20742022;28;20033;-81
2022/08/25 02:33:43;;;;;;;4.60;2.33;;;20.90;99.90;;;;;;20744292;28;20856;-80
2022/08/25 02:43:47;;;;;;;3.55;1.80;;;20.80;99.90;;;;;;20744801;28;20034;-81
2022/08/25 02:53:49;;;;;;;3.45;1.95;;;20.70;99.90;;;;;;20711448;28;20041;-81
2022/08/25 03:03:50;;;;;;;2.75;1.75;;;20.60;99.90;;;;;;20723567;28;20063;-81
2022/08/25 03:13:52;;;;;;;3.75;2.15;;;20.50;99.90;;;;;;20746162;28;20029;-81
2022/08/25 03:23:54;;;;;;;4.45;1.67;;;20.40;99.90;;;;;;20732896;28;20038;-81
2022/08/25 03:33:56;;;;;;;2.83;1.92;;;20.40;99.90;;;;;;20733065;28;20111;-81
2022/08/25 03:43:58;;;;;;;3.25;1.65;;;20.40;99.90;;;;;;20777866;28;20092;-81
2022/08/25 03:54:00;;;;;;;2.75;1.25;;;20.40;99.90;;;;;;20772328;28;20429;-81
2022/08/25 04:04:02;;;;;;;1.80;1.10;;;20.50;99.90;;;;;;20797995;28;20608;-80
2022/08/25 04:14:04;;;;;;;2.40;1.50;;;20.50;99.90;;;;;;20821339;28;20033;-81
2022/08/25 04:24:08;;;;;;;2.85;1.33;;;20.50;99.90;;;;;;20794555;28;20566;-81
2022/08/25 04:34:09;;;;;;;2.20;1.40;;;20.40;99.90;;;;;;20793004;28;20092;-81
2022/08/25 04:44:10;;;;;;;3.45;1.67;;;20.40;99.90;;;;;;20805057;28;20041;-81
2022/08/25 04:54:20;;;;;;;3.58;1.75;;;20.20;99.90;;;;;;20797347;28;20132;-81
2022/08/25 05:04:21;;;;;;;2.25;0.93;;;20.20;99.90;;;;;;20804135;28;20504;-81
2022/08/25 05:14:23;;;;;;;2.90;0.90;;;20.30;99.90;;;;;;20777260;28;20033;-81
2022/08/25 05:24:25;;;;;;;2.42;0.90;;;20.50;99.90;;;;;;20786148;28;20045;-81
2022/08/25 05:34:26;;;;;;;1.77;0.68;;;20.60;99.90;;;;;;20807037;28;20038;-81
2022/08/25 05:44:27;;;;;;;2.65;0.93;;;20.70;99.90;;;;;;20790630;28;20076;-81
2022/08/25 05:54:30;;;;;;;3.33;1.00;;;20.80;99.90;;;;;;20800255;28;20431;-80
2022/08/25 06:04:31;;;;;;;1.35;0.93;;;20.90;99.90;;;;;;20812748;28;20099;-80
2022/08/25 06:14:32;;;;;;;1.90;0.80;;;21.10;99.90;;;;;;20783409;28;20030;-80
2022/08/25 06:24:33;;;;;;;2.03;0.85;;;21.30;99.90;;;;;;20786394;28;20038;-80
2022/08/25 06:34:35;;;;;;;1.60;0.90;;;21.80;99.90;;;;;;20780451;28;20038;-80
2022/08/25 06:44:36;;;;;;;1.58;0.77;;;22.40;99.90;;;;;;20792289;28;20049;-80
2022/08/25 06:54:38;;;;;;;2.10;0.90;;;22.70;99.90;;;;;;20810026;28;20040;-80
2022/08/25 07:04:39;;;;;;;1.60;0.60;;;23.20;99.90;;;;;;20785105;28;20397;-80
2022/08/25 07:14:40;;;;;;;1.52;0.65;;;23.50;99.90;;;;;;20792053;28;20060;-80
2022/08/25 07:24:41;;;;;;;3.03;1.08;;;23.60;99.90;;;;;;20812926;28;20037;-80
2022/08/25 07:45:04;;;;;;;2.17;1.00;;;23.20;99.90;;;;;;20808894;28;20057;-81
2022/08/25 07:55:06;;;;;;;0.88;0.55;;;23.50;99.90;;;;;;20808634;28;20032;-81
2022/08/25 08:05:08;;;;;;;2.15;0.82;;;24.10;99.90;;;;;;20795479;28;20033;-80
2022/08/25 08:15:10;;;;;;;1.90;0.75;;;24.60;99.90;;;;;;20788210;28;20025;-80
2022/08/25 08:25:12;;;;;;;2.17;0.82;;;25.10;99.90;;;;;;20806728;28;20080;-80
2022/08/25 08:35:15;;;;;;;3.22;0.60;;;25.70;99.90;;;;;;20776963;28;20033;-80
2022/08/25 08:45:36;;;;;;;2.53;0.90;;;26.20;99.90;;;;;;20830807;28;20584;-80
2022/08/25 08:55:47;;;;;;;2.20;1.02;;;26.60;99.90;;;;;;20823348;28;20083;-80
2022/08/25 09:05:53;;;;;;;2.03;0.95;;;27.20;99.90;;;;;;20807461;28;20079;-80
2022/08/25 09:26:35;;;;;;;1.60;0.85;;;28.40;99.90;;;;;;20824556;28;20086;-80
2022/08/25 09:36:36;;;;;;;2.03;1.08;;;28.80;99.70;;;;;;20789695;28;20032;-80
2022/08/25 09:46:37;;;;;;;2.85;1.38;;;29.40;97.80;;;;;;20801265;28;20060;-80
2022/08/25 09:56:56;;;;;;;2.28;1.05;;;29.60;99.40;;;;;;20794618;28;20033;-80
2022/08/25 10:06:59;;;;;;;1.38;0.77;;;30.00;97.90;;;;;;20825316;28;20041;-80
2022/08/25 10:17:14;;;;;;;2.08;1.55;;;30.40;97.60;;;;;;20783382;28;20407;-80
2022/08/25 10:27:44;;;;;;;1.98;0.60;;;30.60;95.90;;;;;;20793355;28;20060;-80
2022/08/25 10:38:24;;;;;;;1.77;0.80;;;30.90;95.50;;;;;;20794137;28;20041;-80
2022/08/25 10:48:51;;;;;;;3.92;0.77;;;30.90;93.60;;;;;;20797810;28;21565;-80
2022/08/25 10:59:19;;;;;;;0.75;0.40;;;30.90;92.70;;;;;;20816635;28;20059;-80
2022/08/25 11:09:27;;;;;;;2.08;0.30;;;31.40;91.00;;;;;;20789731;28;21735;-80
2022/08/25 11:19:32;;;;;;;1.80;0.80;;;32.30;89.40;;;;;;20786391;28;20440;-80
2022/08/25 11:29:36;;;;;;;0.82;0.60;;;32.20;90.00;;;;;;20787140;28;24593;-80
2022/08/25 11:40:01;;;;;;;11.15;0.90;;;31.40;91.10;;;;;;20810292;28;20482;-80
2022/08/25 11:50:25;;;;;;;2.50;0.80;;;31.00;90.10;;;;;;20792867;28;20033;-80
2022/08/25 12:00:41;;;;;;;0.85;0.40;;;31.20;91.60;;;;;;20806431;28;21338;-80
2022/08/25 12:11:05;;;;;;;1.58;1.00;;;32.80;89.20;;;;;;20790024;28;20088;-80
2022/08/25 12:21:05;;;;;;;1.52;0.70;;;33.60;89.60;;;;;;20801738;28;20048;-80
2022/08/25 12:31:23;;;;;;;4.60;1.30;;;33.70;87.40;;;;;;20833480;28;20064;-80
2022/08/25 12:41:29;;;;;;;4.28;0.60;;;34.00;83.60;;;;;;20833172;28;20383;-80
2022/08/25 12:51:42;;;;;;;1.20;0.60;;;34.20;83.80;;;;;;20814620;28;20171;-80
2022/08/25 13:02:09;;;;;;;1.65;1.08;;;34.50;84.60;;;;;;20797442;28;20855;-81
2022/08/25 13:12:17;;;;;;;1.50;0.70;;;34.80;81.70;;;;;;20765340;28;20385;-80
2022/08/25 13:22:20;;;;;;;1.08;0.52;;;34.80;82.60;;;;;;20805327;28;20594;-80
2022/08/25 13:32:27;;;;;;;0.80;0.50;;;34.80;81.40;;;;;;20815391;28;20043;-80
2022/08/25 13:42:28;;;;;;;2.05;0.98;;;35.00;81.70;;;;;;20833223;28;20095;-80
2022/08/25 13:52:30;;;;;;;1.60;0.73;;;35.20;80.40;;;;;;20826106;28;20041;-80
2022/08/25 14:02:45;;;;;;;0.90;0.50;;;35.40;79.60;;;;;;20809824;28;20442;-80
2022/08/25 14:12:47;;;;;;;2.17;0.75;;;35.70;78.20;;;;;;20796352;28;20091;-80
2022/08/25 14:22:54;;;;;;;4.00;2.15;;;35.20;78.30;;;;;;20806377;28;20496;-80
2022/08/25 14:32:55;;;;;;;1.33;0.57;;;34.80;79.40;;;;;;20797004;28;20033;-80
2022/08/25 14:42:58;;;;;;;1.27;0.77;;;34.40;78.90;;;;;;20801141;28;20041;-80
2022/08/25 14:52:59;;;;;;;1.73;0.77;;;34.20;79.80;;;;;;20826261;28;20157;-80
2022/08/25 15:03:00;;;;;;;2.70;0.93;;;34.10;81.00;;;;;;20811095;28;20979;-80
2022/08/25 15:13:01;;;;;;;1.40;0.70;;;33.60;85.20;;;;;;20808677;28;20432;-80
2022/08/25 15:23:02;;;;;;;1.75;0.73;;;33.60;84.30;;;;;;20825765;28;20461;-80
2022/08/25 15:33:03;;;;;;;1.60;1.00;;;33.30;87.80;;;;;;20831740;28;20025;-80
2022/08/25 15:43:05;;;;;;;1.30;0.90;;;32.90;89.80;;;;;;20787327;28;20107;-79
2022/08/25 15:53:05;;;;;;;3.72;1.00;;;32.50;90.50;;;;;;20794695;28;20056;-80
2022/08/25 16:03:07;;;;;;;3.58;1.45;;;32.30;89.90;;;;;;20796081;28;20038;-80
2022/08/25 16:13:09;;;;;;;1.90;1.20;;;31.80;91.00;;;;;;20782291;28;20030;-80
2022/08/25 16:23:10;;;;;;;3.65;2.35;;;31.30;92.70;;;;;;20791342;28;20037;-80
2022/08/25 16:33:12;;;;;;;7.15;3.45;;;30.50;95.60;;;;;;20808868;28;20711;-80
2022/08/25 16:43:13;;;;;;;4.78;2.75;;;29.40;98.50;;;;;;20798412;28;20045;-80
2022/08/25 17:03:35;;;;;;;3.97;2.13;;;28.10;99.90;;;;;;20818179;28;20037;-80
2022/08/25 17:13:39;;;;;;;3.80;2.38;;;27.50;99.90;;;;;;20797514;28;20037;-80
2022/08/25 17:23:42;;;;;;;4.00;2.33;;;27.10;99.90;;;;;;20819010;28;20100;-80
2022/08/25 17:33:44;;;;;;;5.35;2.55;;;26.90;99.90;;;;;;20790811;28;20881;-80
2022/08/25 17:43:45;;;;;;;8.73;4.43;;;26.90;99.90;;;;;;20782278;28;20059;-80
2022/08/25 17:53:48;;;;;;;4.68;2.42;;;26.80;99.90;;;;;;20813473;28;20029;-80
2022/08/25 18:03:50;;;;;;;5.55;3.05;;;26.50;99.90;;;;;;20813306;28;20476;-80
2022/08/25 18:13:52;;;;;;;8.85;5.03;;;26.20;99.90;;;;;;20810272;28;20091;-80
2022/08/25 18:23:54;;;;;;;5.95;3.65;;;25.90;99.90;;;;;;20819934;28;20403;-80
2022/08/25 18:33:55;;;;;;;9.05;4.40;;;25.50;99.90;;;;;;20834944;28;20037;-80
2022/08/25 18:43:56;;;;;;;6.50;3.55;;;25.40;99.90;;;;;;20802940;28;20119;-80
2022/08/25 18:53:58;;;;;;;8.25;4.72;;;24.90;99.90;;;;;;20803722;28;20037;-79
2022/08/25 19:04:00;;;;;;;13.05;6.25;;;24.70;99.90;;;;;;20808930;28;20437;-80
2022/08/25 19:14:01;;;;;;;8.98;4.18;;;24.50;99.90;;;;;;20821651;28;20040;-80
2022/08/25 19:24:02;;;;;;;9.82;4.88;;;24.00;99.90;;;;;;20797103;28;20037;-80
2022/08/25 19:34:05;;;;;;;5.35;3.33;;;23.70;99.90;;;;;;20802196;28;20076;-80
2022/08/25 19:44:06;;;;;;;7.07;4.13;;;23.40;99.90;;;;;;20796669;28;20908;-81
2022/08/25 19:54:08;;;;;;;8.07;4.32;;;23.20;99.90;;;;;;20812329;28;20033;-82
2022/08/25 20:04:09;;;;;;;8.07;4.65;;;23.00;99.90;;;;;;20783766;28;20037;-81
2022/08/25 20:14:10;;;;;;;7.15;4.07;;;22.70;99.90;;;;;;20788613;28;20047;-81
2022/08/25 20:34:31;;;;;;;5.50;2.83;;;22.20;99.90;;;;;;20827334;28;20752;-81
2022/08/25 20:44:35;;;;;;;15.00;2.80;;;22.10;99.90;;;;;;20868541;28;20071;-81
2022/08/25 20:54:36;;;;;;;8.48;3.85;;;21.90;99.90;;;;;;20800068;28;20025;-80
2022/08/25 21:04:37;;;;;;;4.47;1.38;;;21.90;99.90;;;;;;20792686;28;20558;-80
2022/08/25 21:14:40;;;;;;;2.95;1.55;;;21.90;99.90;;;;;;20793876;28;20065;-81
2022/08/25 21:24:41;;;;;;;2.55;1.20;;;21.80;99.90;;;;;;20792629;28;20041;-80
2022/08/25 21:34:42;;;;;;;2.47;1.20;;;21.60;99.90;;;;;;20811092;28;20090;-80
2022/08/25 21:44:43;;;;;;;1.48;1.08;;;21.70;99.90;;;;;;20787249;28;20033;-80
2022/08/25 21:54:44;;;;;;;1.55;0.88;;;21.60;99.90;;;;;;20817396;28;20029;-80
2022/08/25 22:04:49;;;;;;;1.35;0.43;;;21.60;99.90;;;;;;20803514;28;20064;-80
2022/08/25 22:14:50;;;;;;;1.48;0.60;;;21.60;99.90;;;;;;20800987;28;20034;-80
2022/08/25 22:24:51;;;;;;;1.65;0.80;;;21.50;99.90;;;;;;20785707;28;20064;-80
2022/08/25 22:34:52;;;;;;;1.42;0.45;;;21.40;99.90;;;;;;20800594;28;20091;-81
2022/08/25 22:44:54;;;;;;;1.65;0.60;;;21.40;99.90;;;;;;20784500;28;20033;-81
2022/08/25 22:54:55;;;;;;;1.15;0.52;;;21.30;99.90;;;;;;20810297;28;20439;-81
2022/08/25 23:04:56;;;;;;;3.03;1.08;;;21.30;99.90;;;;;;20795527;28;20091;-81
2022/08/25 23:14:57;;;;;;;2.28;0.45;;;21.20;99.90;;;;;;20828325;28;20033;-81
2022/08/25 23:24:58;;;;;;;2.53;0.75;;;21.10;99.90;;;;;;20816732;28;20447;-81
2022/08/25 23:34:59;;;;;;;1.27;0.50;;;21.10;99.90;;;;;;20792439;28;20032;-80
2022/08/25 23:45:00;;;;;;;1.73;0.57;;;21.10;99.90;;;;;;20807178;28;20215;-81
2022/08/25 23:55:01;;;;;;;6.72;0.60;;;21.00;99.90;;;;;;20792713;28;20037;-80
